Swiss, WV (26690)

12:18 AM EDT on September 05, 2015 (GMT -0400)
KWVGLENF2 | | Change Station
CLOSE
Current Station
Personal Weather Station
Location: Glen Ferris, WV
Elevation: 676 ft
Nearby Weather Stations

Elev 676 ft 38.15 °N, 81.22 °W | Updated 1 minute ago

Partly Cloudy
Partly Cloudy
67.6 °F
Feels Like 67.6 °F
N
0.0
Wind Variable Wind from NW
Gusts 0.0 mph

Today
High -- | Low -- °F
--% Chance of Precip.
Yesterday
High -- | Low -- °F
Precip. -- in
6:57 AM 7:48 PM
Waning Gibbous, 53% visible
Pressure 30.07 in
Visibility 6.0 miles
Clouds Scattered Clouds 25000 ft
Dew Point 66 °F
Humidity 95%
Rainfall 0.00 in
Snow Depth Not available.
UV 0 out of 12
Pollen 9.30 out of 12
Air Quality Not available.
Flu Activity Not available.
METAR KCRW 050354Z 00000KT 6SM BR SCT250 22/21 A3010 RMK AO2 SLP181 T02220206
Pressure 30.07 in
Visibility 6.0 miles
Clouds Scattered Clouds 25000 ft
Dew Point 66 °F
Humidity 95%
Rainfall 0.00 in
Snow Depth Not available.
UV 0 out of 12
Pollen 9.30 out of 12
Air Quality Not available.
Flu Activity Not available.
METAR KCRW 050354Z 00000KT 6SM BR SCT250 22/21 A3010 RMK AO2 SLP181 T02220206

10-Day Weather Forecast

×

Almanac

Astronomy

Sep. 05, 2015 Rise Set
Actual Time
Civil Twilight
Nautical Twilight
Astronomical Twilight
Moon
Length of Visible Light
Length of Day
Tomorrow will be .
, % of the Moon is Illuminated

Today's Extremes

State Highs State Lows

Community

WunderPhotos

Upload Photos

1,852,419 photos uploaded!

WunderBlogs® & News

Nearby

Air Quality

  Air Quality AQ Index Pollutant
Not available.

Snow Depth

Station Depth Elevation

Earthquake Activity

City Distance Mag. Time & Date
Minimum magnitude displayed is 2.5.

Coastal Water Temperatures

Place Temperature

Stations

Nearby Weather Stations

Station Location Temp. Windchill Dew Point Humidity Wind Precip. Elev Updated Type